Time;durP1;ratioP1;P1;durP2;ratioP2;P2;SDS_P1;SDS_P2;PMS_P1;PMS_P2;Temp;Humidity;BMP_temperature;BMP_pressure;BME280_temperature;BME280_humidity;BME280_pressure;Samples;Min_cycle;Max_cycle;Signal;HPM_P1;HPM_P2
2021/11/07 00:00:40;;;;;;;1.27;1.10;;;;;;;3.73;83.88;100277.69;5015883;28;20295;-69
2021/11/07 00:05:44;;;;;;;5.03;1.80;;;;;;;3.74;83.08;100274.06;5032597;28;20285;-66
2021/11/07 00:10:48;;;;;;;2.97;1.73;;;;;;;3.49;83.42;100285.03;5032552;28;20747;-68
2021/11/07 00:13:24;;;;;;;1.92;1.73;;;;;;;3.57;83.09;100295.75;5032580;28;20035;-68
2021/11/07 00:15:50;;;;;;;1.70;1.40;;;;;;;3.52;82.96;100282.16;5033461;28;20044;-64
2021/11/07 00:18:20;;;;;;;1.93;1.30;;;;;;;3.58;82.87;100287.72;5032472;28;20260;-66
2021/11/07 00:21:09;;;;;;;1.43;1.30;;;;;;;3.51;82.50;100291.84;5032406;28;20295;-66
2021/11/07 00:28:44;;;;;;;6.90;2.33;;;;;;;3.10;83.85;100282.94;5032339;28;20759;-65
2021/11/07 00:36:23;;;;;;;4.70;1.80;;;;;;;3.37;82.64;100292.97;5032036;28;20064;-67
2021/11/07 00:41:39;;;;;;;1.50;1.40;;;;;;;3.61;81.82;100305.91;5016333;28;20671;-67
2021/11/07 00:44:09;;;;;;;1.47;1.20;;;;;;;3.68;80.91;100303.56;5036014;28;20779;-65
2021/11/07 00:49:10;;;;;;;1.20;1.07;;;;;;;3.76;79.68;100305.56;5017707;28;20371;-65
2021/11/07 00:54:12;;;;;;;2.03;1.20;;;;;;;3.72;80.42;100312.88;5032151;28;20264;-68
2021/11/07 00:59:50;;;;;;;1.87;1.20;;;;;;;3.74;80.67;100300.41;5032301;28;20334;-66
2021/11/07 01:02:00;;;;;;;1.27;1.10;;;;;;;3.74;80.94;100305.69;5026956;28;20049;-67
2021/11/07 01:04:28;;;;;;;3.90;1.10;;;;;;;3.63;80.79;100309.22;5032069;28;20276;-67
2021/11/07 01:06:54;;;;;;;2.50;1.35;;;;;;;3.61;80.87;100311.16;5032469;28;20284;-64
2021/11/07 01:09:20;;;;;;;1.17;1.07;;;;;;;3.55;80.11;100300.31;5039192;28;20049;-67
2021/11/07 01:11:46;;;;;;;1.50;1.33;;;;;;;3.61;79.17;100310.31;5039259;28;20061;-68
2021/11/07 01:14:14;;;;;;;1.00;0.93;;;;;;;3.65;79.37;100311.72;5039064;28;20739;-66
2021/11/07 01:16:41;;;;;;;2.23;1.00;;;;;;;3.61;78.25;100321.69;5033334;28;20030;-65
2021/11/07 01:19:07;;;;;;;1.40;1.30;;;;;;;3.58;78.30;100305.31;5033846;28;20268;-65
2021/11/07 01:21:37;;;;;;;1.80;0.90;;;;;;;3.60;79.45;100321.81;5033632;28;20331;-67
2021/11/07 01:24:08;;;;;;;1.50;1.03;;;;;;;3.58;79.62;100315.84;5033170;28;20295;-63
2021/11/07 01:26:37;;;;;;;1.67;1.20;;;;;;;3.62;79.07;100319.91;5031486;28;20268;-66
2021/11/07 01:29:26;;;;;;;1.27;1.13;;;;;;;3.66;78.35;100318.66;5032468;28;20280;-67
2021/11/07 01:31:53;;;;;;;2.38;1.40;;;;;;;3.51;78.54;100293.66;5033120;28;20268;-64
2021/11/07 01:37:01;;;;;;;1.38;1.10;;;;;;;3.62;80.27;100327.78;5032345;28;20820;-66
2021/11/07 01:39:46;;;;;;;1.13;1.03;;;;;;;3.64;80.82;100315.34;5034494;28;20516;-63
2021/11/07 01:42:31;;;;;;;1.33;1.10;;;;;;;3.64;82.11;100316.16;5032798;28;20284;-66
2021/11/07 01:45:00;;;;;;;1.73;1.27;;;;;;;3.63;81.65;100316.28;5033384;28;20604;-67
2021/11/07 01:47:27;;;;;;;1.40;1.30;;;;;;;3.69;82.42;100315.78;4997755;28;20663;-66
2021/11/07 01:49:52;;;;;;;3.40;1.10;;;;;;;3.61;82.03;100289.25;5031720;28;20260;-66
2021/11/07 01:52:20;;;;;;;2.73;1.10;;;;;;;3.86;82.71;100325.72;4997848;28;20275;-65
2021/11/07 01:57:23;;;;;;;2.63;1.30;;;;;;;3.81;82.43;100306.03;5031384;28;20033;-67
2021/11/07 01:59:52;;;;;;;2.10;1.67;;;;;;;3.97;82.49;100325.63;5014145;28;20791;-66
2021/11/07 02:02:19;;;;;;;1.98;1.45;;;;;;;3.92;82.01;100322.56;5032562;28;20264;-65
2021/11/07 02:04:46;;;;;;;2.77;1.37;;;;;;;3.90;82.20;100306.06;5031510;28;20408;-66
2021/11/07 02:07:12;;;;;;;4.03;1.33;;;;;;;3.95;81.82;100319.66;5031155;28;20276;-65
2021/11/07 02:09:39;;;;;;;1.47;1.30;;;;;;;3.84;81.20;100316.28;5034313;28;20758;-67
2021/11/07 02:12:07;;;;;;;5.10;1.80;;;;;;;3.75;81.44;100333.69;5034638;28;20265;-65
2021/11/07 02:14:33;;;;;;;4.97;2.73;;;;;;;3.61;81.45;100332.22;5035030;28;20290;-67
2021/11/07 02:16:59;;;;;;;2.10;1.50;;;;;;;3.36;81.72;100320.25;5035072;28;20651;-69
2021/11/07 02:19:25;;;;;;;1.17;0.93;;;;;;;3.38;81.27;100331.50;5017019;28;20128;-63
2021/11/07 02:21:51;;;;;;;1.53;1.20;;;;;;;3.39;81.36;100327.91;5034533;28;20843;-67
2021/11/07 02:24:18;;;;;;;2.30;1.30;;;;;;;3.39;80.29;100327.91;5034935;28;20059;-64
2021/11/07 02:26:56;;;;;;;2.53;1.10;;;;;;;3.47;79.89;100336.97;5035327;28;20532;-67
2021/11/07 02:29:23;;;;;;;2.00;1.33;;;;;;;3.39;79.81;100322.63;5035254;28;20733;-66
2021/11/07 02:31:50;;;;;;;2.27;1.50;;;;;;;3.42;79.83;100343.44;5036089;28;20037;-66
2021/11/07 02:34:17;;;;;;;1.40;1.30;;;;;;;3.33;79.72;100330.22;5034771;28;20755;-65
2021/11/07 02:36:43;;;;;;;2.73;1.30;;;;;;;3.27;80.53;100334.19;5034363;28;20380;-65
2021/11/07 02:39:13;;;;;;;3.10;0.90;;;;;;;3.20;80.84;100343.56;5032756;28;20378;-67
2021/11/07 02:41:40;;;;;;;1.23;1.10;;;;;;;3.20;80.82;100342.72;5034286;28;20107;-64
2021/11/07 02:44:06;;;;;;;1.30;0.97;;;;;;;3.06;81.20;100323.63;5034468;28;20264;-63
2021/11/07 02:46:31;;;;;;;1.97;1.40;;;;;;;3.06;81.01;100334.16;5036804;28;20503;-67
2021/11/07 02:49:00;;;;;;;1.60;1.03;;;;;;;2.98;81.01;100323.41;5034097;28;20069;-68
2021/11/07 02:51:28;;;;;;;3.97;1.40;;;;;;;3.05;81.51;100335.09;5016685;28;20068;-65
2021/11/07 02:53:54;;;;;;;11.75;2.15;;;;;;;3.01;81.66;100338.13;5033964;28;20033;-67
2021/11/07 02:56:21;;;;;;;1.70;1.30;;;;;;;2.88;81.77;100321.63;5034222;28;20500;-65
2021/11/07 02:58:47;;;;;;;2.20;1.10;;;;;;;2.88;82.17;100327.72;5016372;28;20034;-67
2021/11/07 03:01:18;;;;;;;3.03;1.20;;;;;;;3.00;82.20;100336.44;5018132;28;20391;-66
2021/11/07 03:03:44;;;;;;;2.30;1.03;;;;;;;3.15;82.02;100340.44;5034126;28;20275;-66
2021/11/07 03:06:10;;;;;;;0.93;0.90;;;;;;;3.21;81.62;100323.34;5048189;28;20276;-68
2021/11/07 03:08:41;;;;;;;1.20;1.07;;;;;;;3.36;81.77;100337.84;5048984;28;20034;-66
2021/11/07 03:11:07;;;;;;;1.77;1.20;;;;;;;3.31;82.38;100318.97;5054124;28;20017;-65
2021/11/07 03:13:32;;;;;;;1.70;1.30;;;;;;;3.47;81.77;100339.59;5047805;28;20267;-66
2021/11/07 03:16:08;;;;;;;3.63;1.33;;;;;;;3.35;83.12;100326.50;5040569;28;20048;-66
2021/11/07 03:18:35;;;;;;;4.43;1.03;;;;;;;3.47;83.17;100337.81;5034581;28;20064;-66
2021/11/07 03:21:03;;;;;;;2.60;1.07;;;;;;;3.48;82.63;100336.03;5031618;28;20358;-68
2021/11/07 03:23:30;;;;;;;2.63;1.25;;;;;;;3.46;83.49;100335.28;5034236;28;20272;-65
2021/11/07 03:26:31;;;;;;;2.17;1.37;;;;;;;3.59;83.08;100360.50;5016227;28;20046;-67
2021/11/07 03:28:50;;;;;;;1.07;0.90;;;;;;;3.67;82.73;100357.22;5031292;28;20279;-67
2021/11/07 03:31:24;;;;;;;2.10;1.30;;;;;;;3.70;83.04;100351.69;5016641;28;20359;-65
2021/11/07 03:33:53;;;;;;;2.13;1.30;;;;;;;3.75;82.62;100349.50;5033848;28;20303;-64
2021/11/07 03:36:20;;;;;;;1.20;1.10;;;;;;;3.73;82.14;100351.41;5015611;28;20306;-65
2021/11/07 03:38:54;;;;;;;2.40;1.23;;;;;;;3.67;82.70;100344.03;5033422;28;20708;-67
2021/11/07 03:41:20;;;;;;;1.73;1.47;;;;;;;3.74;82.59;100347.81;5015623;28;20334;-65
2021/11/07 03:43:47;;;;;;;2.30;1.00;;;;;;;3.76;82.58;100367.00;5015490;28;20268;-66
2021/11/07 03:46:13;;;;;;;1.23;1.13;;;;;;;3.61;82.55;100339.28;5034959;28;20837;-67
2021/11/07 03:48:40;;;;;;;1.17;1.07;;;;;;;3.77;83.32;100355.50;5033045;28;20272;-65
2021/11/07 03:51:08;;;;;;;2.40;1.50;;;;;;;3.80;82.77;100365.78;5033045;28;20359;-65
2021/11/07 03:53:33;;;;;;;1.43;1.27;;;;;;;3.73;81.62;100351.41;5032852;28;20276;-66
2021/11/07 03:56:00;;;;;;;1.73;1.63;;;;;;;3.70;82.65;100352.50;5033040;28;20263;-67
2021/11/07 03:58:26;;;;;;;1.30;1.20;;;;;;;3.80;82.82;100363.13;4998925;28;20511;-68
2021/11/07 04:00:51;;;;;;;1.43;1.20;;;;;;;3.79;82.19;100372.00;5034598;28;20284;-65
2021/11/07 04:03:17;;;;;;;2.03;1.20;;;;;;;3.77;82.25;100371.28;5032868;28;20550;-67
2021/11/07 04:05:43;;;;;;;1.80;1.70;;;;;;;3.78;81.88;100374.75;5032675;28;20030;-66
2021/11/07 04:08:08;;;;;;;3.43;1.60;;;;;;;3.73;81.67;100356.69;5014832;28;20029;-63
2021/11/07 04:10:34;;;;;;;3.60;1.50;;;;;;;3.79;81.76;100377.28;5032482;28;20029;-66
2021/11/07 04:13:01;;;;;;;3.10;1.60;;;;;;;3.67;81.40;100354.56;5032378;28;20465;-68
2021/11/07 04:15:26;;;;;;;2.77;1.80;;;;;;;3.46;82.07;100337.91;5016101;28;20131;-64
2021/11/07 04:17:52;;;;;;;3.10;1.70;;;;;;;3.70;81.72;100373.59;5033483;28;20355;-68
2021/11/07 04:20:18;;;;;;;3.23;1.87;;;;;;;3.69;81.88;100369.28;5032916;28;20037;-67
2021/11/07 04:22:43;;;;;;;3.60;2.20;;;;;;;3.78;81.91;100369.50;5032838;28;20404;-68
2021/11/07 04:25:10;;;;;;;2.63;1.90;;;;;;;3.84;82.11;100363.72;5032250;28;20284;-68
2021/11/07 04:27:36;;;;;;;3.33;1.77;;;;;;;3.88;81.49;100380.91;5032669;28;20045;-66
2021/11/07 04:30:05;;;;;;;3.73;1.93;;;;;;;3.86;81.42;100373.16;5033116;28;20739;-66
2021/11/07 04:32:31;;;;;;;3.33;2.10;;;;;;;3.78;81.80;100362.44;5033447;28;20476;-66
2021/11/07 04:34:56;;;;;;;3.00;1.70;;;;;;;3.57;82.36;100351.03;5032224;28;20272;-69
2021/11/07 04:37:23;;;;;;;1.83;1.60;;;;;;;3.42;82.05;100359.25;5032260;28;20033;-65
2021/11/07 04:39:51;;;;;;;2.80;1.80;;;;;;;3.39;82.88;100384.97;5032052;28;20103;-67
2021/11/07 04:42:16;;;;;;;2.47;1.73;;;;;;;3.29;82.56;100382.28;4998340;28;20639;-64
2021/11/07 04:44:42;;;;;;;3.97;1.90;;;;;;;3.16;83.08;100368.44;5032194;28;20264;-68
2021/11/07 04:47:08;;;;;;;1.80;1.70;;;;;;;3.21;83.13;100366.28;5034321;28;20068;-65
2021/11/07 04:49:33;;;;;;;2.33;2.00;;;;;;;3.32;83.65;100379.38;5032042;28;20483;-68
2021/11/07 04:51:59;;;;;;;1.93;1.50;;;;;;;3.43;83.42;100368.81;5014057;28;20116;-67
2021/11/07 04:54:25;;;;;;;2.03;1.77;;;;;;;3.41;83.63;100356.72;5014012;28;20048;-63
2021/11/07 04:56:51;;;;;;;2.10;1.97;;;;;;;3.56;83.83;100380.97;5014286;28;20091;-67
2021/11/07 04:59:17;;;;;;;2.67;1.90;;;;;;;3.24;82.86;100337.09;5031968;28;20041;-67
2021/11/07 05:01:43;;;;;;;3.50;2.17;;;;;;;3.42;83.43;100390.81;5033315;28;20037;-69
2021/11/07 05:04:08;;;;;;;2.37;1.53;;;;;;;3.25;83.61;100372.13;5031630;28;20785;-66
2021/11/07 05:06:36;;;;;;;2.60;1.77;;;;;;;3.25;84.40;100382.66;5032019;28;20029;-67
2021/11/07 05:09:03;;;;;;;2.90;1.60;;;;;;;3.28;85.12;100392.94;5031961;28;20056;-68
2021/11/07 05:11:28;;;;;;;4.77;3.00;;;;;;;3.31;84.19;100387.41;5031695;28;20303;-65
2021/11/07 05:13:54;;;;;;;2.40;2.20;;;;;;;3.31;84.91;100390.88;5031769;28;20264;-65
2021/11/07 05:16:20;;;;;;;3.03;1.50;;;;;;;3.20;84.17;100375.16;5033856;28;20413;-66
2021/11/07 05:18:45;;;;;;;1.97;1.70;;;;;;;3.19;83.86;100385.78;5031628;28;20099;-68
2021/11/07 05:21:11;;;;;;;2.50;1.90;;;;;;;3.23;83.60;100387.22;5031472;28;20072;-67
2021/11/07 05:23:37;;;;;;;2.00;1.80;;;;;;;3.28;84.07;100399.03;5030894;28;20040;-65
2021/11/07 05:26:03;;;;;;;3.93;1.83;;;;;;;3.24;83.62;100397.63;5014322;28;20711;-65
2021/11/07 05:28:29;;;;;;;4.03;1.70;;;;;;;3.12;83.57;100388.06;5032254;28;20128;-67
2021/11/07 05:30:55;;;;;;;3.63;1.80;;;;;;;3.20;83.92;100395.34;5032190;28;20042;-66
2021/11/07 05:33:21;;;;;;;2.50;2.00;;;;;;;3.13;83.78;100376.56;5032324;28;20331;-67
2021/11/07 05:35:47;;;;;;;4.07;2.40;;;;;;;3.17;83.28;100388.53;5032552;28;20060;-67
2021/11/07 05:38:12;;;;;;;3.37;2.60;;;;;;;3.19;84.48;100397.16;5033190;28;20751;-67
2021/11/07 05:40:40;;;;;;;2.17;1.80;;;;;;;3.18;83.63;100397.25;5014937;28;20061;-68
2021/11/07 05:43:05;;;;;;;2.80;2.03;;;;;;;3.24;83.45;100394.16;5034913;28;20041;-67
2021/11/07 05:45:31;;;;;;;2.63;2.43;;;;;;;3.24;83.32;100389.72;5036117;28;20279;-65
2021/11/07 05:47:57;;;;;;;2.87;2.13;;;;;;;3.20;83.57;100395.34;5036482;28;20404;-67
2021/11/07 05:50:23;;;;;;;2.87;2.33;;;;;;;3.01;82.94;100375.78;5035801;28;20037;-69
2021/11/07 05:52:51;;;;;;;4.83;2.73;;;;;;;3.23;83.00;100409.09;5035202;28;20047;-65
2021/11/07 05:55:17;;;;;;;4.00;2.73;;;;;;;3.04;82.98;100378.16;5035052;28;20786;-67
2021/11/07 05:57:43;;;;;;;4.90;2.80;;;;;;;3.15;83.31;100385.19;5018386;28;20272;-66
2021/11/07 06:00:11;;;;;;;4.03;2.30;;;;;;;3.31;83.55;100405.84;5039123;28;20044;-65
2021/11/07 06:02:37;;;;;;;2.97;2.33;;;;;;;3.34;82.91;100406.41;5043133;28;20045;-64
2021/11/07 06:05:03;;;;;;;4.00;2.10;;;;;;;3.35;82.60;100404.63;5044533;28;20355;-65
2021/11/07 06:07:29;;;;;;;2.93;2.33;;;;;;;3.21;82.54;100376.81;5035471;28;20743;-66
2021/11/07 06:09:54;;;;;;;3.20;1.70;;;;;;;3.42;82.97;100409.25;5035683;28;20152;-66
2021/11/07 06:12:20;;;;;;;4.37;2.50;;;;;;;3.46;82.86;100396.66;5035500;28;20416;-66
2021/11/07 06:14:46;;;;;;;4.37;2.50;;;;;;;3.42;82.29;100400.53;5034654;28;20042;-64
2021/11/07 06:17:12;;;;;;;4.70;2.70;;;;;;;3.41;82.29;100389.16;5018662;28;20128;-66
2021/11/07 06:19:38;;;;;;;4.77;3.17;;;;;;;3.31;81.49;100385.63;5034596;28;20318;-66
2021/11/07 06:22:04;;;;;;;3.53;3.03;;;;;;;3.27;82.36;100399.16;5034352;28;20277;-67
2021/11/07 06:24:31;;;;;;;11.97;4.40;;;;;;;3.05;82.68;100377.19;5034443;28;20327;-68
2021/11/07 06:26:58;;;;;;;4.27;3.70;;;;;;;3.09;82.51;100390.94;5034321;28;20034;-65
2021/11/07 06:29:26;;;;;;;4.50;3.92;;;;;;;3.20;82.46;100411.16;5034434;28;20272;-66
2021/11/07 06:31:53;;;;;;;8.83;4.80;;;;;;;3.14;82.73;100414.25;5035584;28;20049;-64
2021/11/07 06:34:20;;;;;;;6.43;5.10;;;;;;;3.13;83.05;100405.53;5016570;28;20311;-65
2021/11/07 06:36:46;;;;;;;6.07;4.53;;;;;;;3.08;82.85;100402.44;5034366;28;20272;-68
2021/11/07 06:39:15;;;;;;;7.50;5.40;;;;;;;3.08;82.61;100405.06;5016454;28;20442;-68
2021/11/07 06:41:40;;;;;;;31.80;16.17;;;;;;;2.93;83.16;100393.16;5034287;28;20304;-64
2021/11/07 06:44:06;;;;;;;11.10;7.67;;;;;;;2.88;83.17;100395.28;5034213;28;20049;-64
2021/11/07 06:46:38;;;;;;;10.27;7.57;;;;;;;2.79;83.56;100392.44;5036148;28;20037;-66
2021/11/07 06:49:06;;;;;;;9.83;5.97;;;;;;;2.69;83.17;100383.63;5033990;28;20033;-65
2021/11/07 06:51:32;;;;;;;7.43;5.63;;;;;;;2.78;82.87;100389.94;5033830;28;20268;-68
2021/11/07 06:53:57;;;;;;;9.33;5.83;;;;;;;2.82;82.61;100390.53;5034262;28;20306;-65
2021/11/07 06:56:23;;;;;;;10.40;6.20;;;;;;;2.75;82.42;100375.22;5034140;28;20519;-67
2021/11/07 06:58:48;;;;;;;9.47;6.07;;;;;;;2.93;82.34;100406.31;5034306;28;20038;-64
2021/11/07 07:01:14;;;;;;;7.83;5.87;;;;;;;2.90;82.71;100385.50;5034833;28;20041;-68
2021/11/07 07:03:39;;;;;;;7.07;5.43;;;;;;;3.08;82.23;100405.06;5016026;28;20037;-66
2021/11/07 07:06:06;;;;;;;9.43;5.70;;;;;;;3.19;81.51;100399.78;5015991;28;20029;-67
2021/11/07 07:08:42;;;;;;;8.97;5.53;;;;;;;3.25;81.48;100383.50;5016235;28;20079;-66
2021/11/07 07:11:12;;;;;;;9.77;6.43;;;;;;;3.31;81.44;100384.78;5016177;28;20276;-66
2021/11/07 07:16:25;;;;;;;8.83;6.77;;;;;;;3.42;80.83;100400.53;5035376;28;20272;-64
2021/11/07 07:21:44;;;;;;;11.00;6.63;;;;;;;3.63;80.36;100395.28;5033481;28;20718;-65
2021/11/07 07:29:53;;;;;;;9.57;7.47;;;;;;;3.89;78.23;100396.59;5033382;28;20659;-64
2021/11/07 07:35:03;;;;;;;10.33;7.07;;;;;;;4.04;78.63;100397.09;5033358;28;20264;-66
2021/11/07 07:37:29;;;;;;;13.05;6.32;;;;;;;4.21;77.40;100417.59;5033432;28;20276;-63
2021/11/07 07:39:55;;;;;;;9.80;6.47;;;;;;;4.20;77.63;100394.84;5028752;28;20131;-66
2021/11/07 07:42:20;;;;;;;8.13;6.27;;;;;;;4.21;76.66;100390.41;5013616;28;20137;-67
2021/11/07 07:44:50;;;;;;;11.50;6.57;;;;;;;4.21;77.38;100393.03;5013714;28;20300;-67
2021/11/07 07:47:16;;;;;;;13.07;8.90;;;;;;;3.93;77.79;100358.50;5030078;28;20129;-67
2021/11/07 07:49:42;;;;;;;11.50;8.63;;;;;;;3.76;77.61;100351.19;5012001;28;20284;-65
2021/11/07 07:52:07;;;;;;;11.00;7.90;;;;;;;4.03;78.02;100400.69;5011981;28;20335;-67
2021/11/07 07:54:33;;;;;;;15.87;7.60;;;;;;;4.02;78.17;100394.59;5013132;28;20485;-69
2021/11/07 07:56:59;;;;;;;7.80;5.47;;;;;;;3.90;78.02;100385.09;5013277;28;20069;-70
2021/11/07 07:59:25;;;;;;;9.50;5.60;;;;;;;3.91;78.01;100394.66;5011739;28;20041;-66
2021/11/07 08:01:52;;;;;;;8.03;6.30;;;;;;;3.92;78.60;100387.59;5014149;28;20305;-65
2021/11/07 08:04:18;;;;;;;7.87;6.13;;;;;;;3.15;79.18;100277.28;5012898;28;20033;-63
2021/11/07 08:06:44;;;;;;;9.43;6.93;;;;;;;3.81;78.55;100403.47;5012578;28;20723;-64
2021/11/07 08:09:09;;;;;;;8.53;6.43;;;;;;;3.61;78.29;100384.06;5012988;28;20309;-67
2021/11/07 08:11:35;;;;;;;7.27;6.40;;;;;;;3.61;79.18;100413.03;5012511;28;20378;-65
2021/11/07 08:14:01;;;;;;;7.77;6.67;;;;;;;3.46;79.04;100382.69;5011585;28;20073;-65
2021/11/07 08:16:27;;;;;;;8.37;6.23;;;;;;;3.50;79.14;100389.38;5014726;28;20034;-68
2021/11/07 08:18:53;;;;;;;9.43;6.40;;;;;;;3.61;79.74;100399.84;5028029;28;20038;-67
2021/11/07 08:21:20;;;;;;;9.37;6.07;;;;;;;3.62;79.06;100402.38;5012615;28;20044;-68
2021/11/07 08:23:49;;;;;;;7.20;6.27;;;;;;;3.66;78.73;100398.50;5011473;28;20343;-66
2021/11/07 08:26:16;;;;;;;10.27;6.30;;;;;;;3.61;79.05;100387.53;5012951;28;20285;-67
2021/11/07 08:28:43;;;;;;;7.40;6.00;;;;;;;3.68;78.80;100385.22;5012752;28;20092;-67
2021/11/07 08:31:18;;;;;;;7.50;5.43;;;;;;;3.68;78.77;100379.94;5014639;28;20379;-65
2021/11/07 08:33:44;;;;;;;10.00;5.77;;;;;;;3.77;78.60;100387.09;5012521;28;20712;-66
2021/11/07 08:36:14;;;;;;;8.40;5.67;;;;;;;3.89;78.01;100401.88;5011077;28;20340;-66
2021/11/07 08:38:48;;;;;;;9.07;5.82;;;;;;;3.92;78.33;100388.44;4855863;28;4561859;-65
2021/11/07 08:41:16;;;;;;;9.87;5.53;;;;;;;3.95;78.47;100382.91;5014351;28;20324;-68
2021/11/07 09:05:51;;;;;;;8.30;5.33;;;;;;;4.03;77.46;100391.00;5032250;28;20264;-69
2021/11/07 09:08:18;;;;;;;7.03;5.37;;;;;;;4.18;77.71;100403.84;5014645;28;20279;-67
2021/11/07 09:10:46;;;;;;;10.60;5.60;;;;;;;4.21;77.30;100395.69;5031857;28;20387;-67
2021/11/07 09:13:13;;;;;;;6.50;5.17;;;;;;;4.40;77.43;100395.78;5031585;28;20283;-66
2021/11/07 09:15:42;;;;;;;9.67;5.93;;;;;;;4.38;76.84;100381.91;5015344;28;20341;-65
2021/11/07 09:18:09;;;;;;;6.40;4.40;;;;;;;4.49;77.09;100402.06;5033471;28;20033;-69
2021/11/07 09:23:22;;;;;;;4.83;4.03;;;;;;;4.39;76.42;100394.13;5018585;28;20303;-68
2021/11/07 09:26:12;;;;;;;8.13;4.47;;;;;;;4.43;77.15;100387.59;5035542;28;20716;-67
2021/11/07 09:28:55;;;;;;;5.53;3.90;;;;;;;4.44;75.78;100376.09;5035632;28;20628;-66
2021/11/07 09:35:13;;;;;;;7.60;4.57;;;;;;;4.57;76.99;100383.75;5013512;28;20344;-64
2021/11/07 09:37:24;;;;;;;;;;;;;;;4.63;75.94;100386.72;5000809;28;20649;-66
2021/11/07 09:48:08;;;;;;;5.88;4.68;;;;;;;4.59;77.20;100372.09;5036622;28;20264;-68
2021/11/07 09:50:32;;;;;;;7.03;4.23;;;;;;;4.59;76.30;100369.47;5035543;28;20077;-67
2021/11/07 09:52:59;;;;;;;5.60;3.53;;;;;;;4.67;76.19;100358.28;5036533;28;20064;-67
2021/11/07 09:55:27;;;;;;;3.47;3.17;;;;;;;4.70;75.45;100358.00;5035776;28;20075;-64
2021/11/07 09:57:55;;;;;;;4.50;3.93;;;;;;;4.64;75.61;100348.81;5035137;28;20268;-65
2021/11/07 10:00:28;;;;;;;5.13;3.40;;;;;;;4.70;75.97;100346.63;5017680;28;20335;-65
2021/11/07 10:02:54;;;;;;;5.77;3.50;;;;;;;4.70;75.37;100334.25;5034969;28;20048;-67
2021/11/07 10:05:21;;;;;;;4.30;3.30;;;;;;;4.74;75.10;100319.81;5001484;28;20343;-66
2021/11/07 10:08:05;;;;;;;4.70;2.77;;;;;;;4.95;75.35;100330.28;5038233;28;20272;-66
2021/11/07 10:10:36;;;;;;;5.30;3.83;;;;;;;5.01;74.01;100335.00;5039539;28;20279;-66
2021/11/07 10:13:12;;;;;;;3.80;3.43;;;;;;;5.01;74.44;100316.53;5040215;28;20363;-66
2021/11/07 10:15:43;;;;;;;8.43;3.00;;;;;;;4.94;74.70;100307.50;5037645;28;20272;-69
2021/11/07 10:18:15;;;;;;;9.50;4.37;;;;;;;5.13;74.61;100318.06;5036724;28;20276;-68
2021/11/07 10:20:46;;;;;;;5.37;3.57;;;;;;;5.37;73.53;100322.09;5035867;28;20295;-67
2021/11/07 10:23:22;;;;;;;7.27;3.77;;;;;;;5.58;72.98;100330.69;5035873;28;20315;-67
2021/11/07 10:25:58;;;;;;;5.57;3.17;;;;;;;5.72;72.95;100317.03;5036030;28;20619;-68
2021/11/07 10:28:32;;;;;;;7.30;3.13;;;;;;;5.69;72.11;100314.69;5018839;28;20264;-68
2021/11/07 10:31:02;;;;;;;6.37;3.00;;;;;;;5.59;71.63;100298.03;5035881;28;20631;-67
2021/11/07 10:33:56;;;;;;;6.30;3.30;;;;;;;5.57;72.63;100310.53;5035131;28;20049;-66
2021/11/07 10:40:18;;;;;;;;;;;;;;;5.49;73.40;100299.81;4995086;28;20310;-69
2021/11/07 10:48:26;;;;;;;7.03;4.33;;;;;;;5.21;73.22;100286.53;5017163;28;20040;-68
2021/11/07 10:53:56;;;;;;;4.77;3.13;;;;;;;5.12;73.19;100294.44;5035001;28;20052;-65
2021/11/07 10:56:23;;;;;;;12.67;3.83;;;;;;;5.00;73.84;100280.56;5018171;28;20260;-69
2021/11/07 10:58:50;;;;;;;7.53;4.63;;;;;;;5.13;74.18;100290.81;5034304;28;20275;-66
2021/11/07 11:01:21;;;;;;;8.50;4.53;;;;;;;5.14;73.63;100288.03;5035305;28;20801;-66
2021/11/07 11:03:54;;;;;;;10.03;3.90;;;;;;;5.04;73.98;100270.56;5034440;28;20043;-67
2021/11/07 11:06:21;;;;;;;7.10;3.27;;;;;;;4.92;75.01;100264.59;5034234;28;20308;-67
2021/11/07 11:08:54;;;;;;;8.73;4.03;;;;;;;4.93;74.76;100280.28;5016077;28;20286;-68
2021/11/07 11:25:58;;;;;;;4.90;2.87;;;;;;;4.68;75.85;100256.22;5015825;28;20283;-66
2021/11/07 11:40:43;;;;;;;6.20;4.70;;;;;;;4.85;75.56;100237.06;5032447;28;20144;-69
2021/11/07 11:43:12;;;;;;;6.40;3.67;;;;;;;4.85;75.84;100244.97;5033477;28;20049;-70
2021/11/07 11:45:44;;;;;;;6.10;3.70;;;;;;;4.83;75.99;100231.09;5034604;28;20550;-69
2021/11/07 11:48:34;;;;;;;5.33;4.10;;;;;;;4.94;76.54;100249.44;5033338;28;20360;-68
2021/11/07 11:59:59;;;;;;;5.40;4.50;;;;;;;5.02;76.51;100236.38;5016103;28;20041;-67
2021/11/07 12:02:42;;;;;;;7.77;5.10;;;;;;;4.91;75.79;100228.59;5015568;28;20041;-70
2021/11/07 12:08:13;;;;;;;6.83;5.23;;;;;;;4.78;77.74;100238.59;5029922;28;20412;-67
2021/11/07 12:11:04;;;;;;;11.50;5.80;;;;;;;4.59;77.91;100211.22;5032881;28;20033;-68
2021/11/07 12:14:09;;;;;;;11.80;6.70;;;;;;;4.69;78.30;100228.88;5031850;28;20068;-66
2021/11/07 12:16:58;;;;;;;18.88;11.85;;;;;;;4.68;78.54;100216.66;5028998;28;20049;-67
2021/11/07 12:19:37;;;;;;;16.97;8.30;;;;;;;4.63;78.60;100210.00;5032801;28;20041;-70
2021/11/07 12:22:21;;;;;;;13.43;8.30;;;;;;;4.67;78.16;100218.47;5031708;28;20052;-69
2021/11/07 12:24:50;;;;;;;142.33;47.13;;;;;;;4.65;78.54;100217.78;5032863;28;20041;-69
2021/11/07 12:27:49;;;;;;;99.00;35.90;;;;;;;4.59;78.38;100202.47;5031244;28;20037;-71
2021/11/07 12:30:23;;;;;;;16.93;10.57;;;;;;;4.55;77.54;100204.56;5015540;28;20511;-66
2021/11/07 12:33:00;;;;;;;12.30;6.37;;;;;;;4.55;76.36;100209.84;5033004;28;20037;-70
2021/11/07 12:35:37;;;;;;;9.90;4.50;;;;;;;4.36;76.46;100188.75;5014795;28;20275;-72
2021/11/07 12:41:06;;;;;;;8.50;4.57;;;;;;;4.53;76.25;100193.31;5032280;28;20108;-71
2021/11/07 12:43:34;;;;;;;4.77;3.57;;;;;;;4.61;75.65;100190.00;5015257;28;20099;-66
2021/11/07 12:49:17;;;;;;;7.30;4.20;;;;;;;4.61;76.20;100180.28;5028675;28;20045;-67
2021/11/07 12:51:49;;;;;;;5.87;3.90;;;;;;;4.76;75.77;100185.97;5032119;28;20507;-69
2021/11/07 12:54:19;;;;;;;8.23;3.57;;;;;;;4.76;76.04;100193.91;5032186;28;20025;-68
2021/11/07 12:56:56;;;;;;;11.23;3.60;;;;;;;4.76;76.29;100179.88;5014779;28;20045;-68
2021/11/07 12:59:25;;;;;;;11.53;4.20;;;;;;;4.84;76.04;100182.63;5033445;28;20280;-69
2021/11/07 13:02:02;;;;;;;5.15;4.18;;;;;;;4.94;75.90;100184.31;5030661;28;20296;-67
2021/11/07 13:04:37;;;;;;;8.40;3.63;;;;;;;4.94;75.91;100191.41;5032217;28;20034;-68
2021/11/07 13:07:04;;;;;;;6.20;4.03;;;;;;;4.83;76.10;100191.53;5013848;28;20048;-69
2021/11/07 13:09:38;;;;;;;6.13;4.70;;;;;;;4.69;76.19;100176.13;5031900;28;20038;-68
2021/11/07 13:12:12;;;;;;;9.30;4.10;;;;;;;4.74;77.07;100195.00;5030639;28;20038;-66
2021/11/07 13:15:22;;;;;;;7.77;4.50;;;;;;;4.51;76.71;100153.06;5033297;28;20492;-67
2021/11/07 13:18:07;;;;;;;11.07;5.77;;;;;;;4.62;77.22;100179.28;5014106;28;20751;-68
2021/11/07 13:31:11;;;;;;;3.90;3.17;;;;;;;4.51;78.50;100183.88;5014775;28;20367;-67
2021/11/07 13:33:41;;;;;;;4.13;3.17;;;;;;;3.92;78.24;100098.63;4997569;28;20033;-67
2021/11/07 13:36:08;;;;;;;4.60;2.97;;;;;;;4.33;78.86;100166.09;5032163;28;20272;-68
2021/11/07 13:38:53;;;;;;;5.80;3.40;;;;;;;4.34;79.28;100188.88;5013693;28;20341;-69
2021/11/07 13:41:23;;;;;;;6.80;3.37;;;;;;;4.23;79.66;100175.81;5030340;28;20343;-69
2021/11/07 13:44:04;;;;;;;8.33;4.10;;;;;;;4.17;80.70;100179.00;5033340;28;20272;-69
2021/11/07 13:46:33;;;;;;;7.07;5.07;;;;;;;4.02;80.87;100165.34;4997500;28;20375;-68
2021/11/07 13:49:03;;;;;;;;;;;;;;;4.04;81.58;100170.47;5032022;28;20363;-69
2021/11/07 13:51:35;;;;;;;6.03;3.97;;;;;;;3.94;82.23;100165.19;5031538;28;19963;-71
2021/11/07 13:54:05;;;;;;;12.20;5.43;;;;;;;3.97;83.15;100169.34;5032292;28;20791;-65
2021/11/07 13:56:32;;;;;;;5.60;4.23;;;;;;;4.09;83.49;100173.56;5032876;28;20736;-68
2021/11/07 13:58:57;;;;;;;5.27;3.83;;;;;;;4.01;81.96;100149.69;5032967;28;20769;-67
2021/11/07 14:01:23;;;;;;;6.87;3.80;;;;;;;4.06;82.83;100149.28;5032007;28;20329;-65
2021/11/07 14:03:54;;;;;;;6.80;3.40;;;;;;;4.26;83.35;100164.97;4998512;28;20034;-69
2021/11/07 14:06:28;;;;;;;4.63;4.07;;;;;;;4.24;82.69;100137.94;5018178;28;20033;-66
2021/11/07 14:08:58;;;;;;;7.30;4.27;;;;;;;4.32;82.03;100160.97;5035492;28;20268;-67
2021/11/07 14:11:26;;;;;;;5.47;4.97;;;;;;;4.20;81.91;100152.34;5035644;28;20268;-67
2021/11/07 14:13:55;;;;;;;5.70;3.60;;;;;;;4.15;82.44;100151.94;5036514;28;20284;-67